Terminal Aerodrome Forecast
Issued by NWS Wilmington, OH

Current Version | Previous Version | Graphics & Text | Print | Product List | Glossary On
Versions: 1 2 3 4 5 6 7 8 9 10 11 12 13 14
000
FTUS41 KILN 042300
TAFILN
TAF
KILN 042330Z 0500/0524 22004KT P6SM FEW050 BKN120
     FM050400 20003KT P6SM VCTS BKN060CB
     FM050700 21004KT P6SM BKN070
     FM051500 25008KT P6SM SCT070=

USA.gov is the U.S. government's official web portal to all federal, state and local government web resources and services.